< < Back
Terminal Aerodrome Forecast


Current Version              Previous Versions:   1  2  3  4  5  6  7  8  9  

Terminal Aerodrome Forecast

461
FTUS44 KMRX 051120
TAFTYS
TAF
KTYS 051120Z 0512/0612 02007KT P6SM SKC
     FM060100 00000KT P6SM SKC=



Latest METAR

263
SAUS80 KWBC 061100 RRB
MTRTYS
METAR KTYS 061053Z 08004KT 10SM BKN250 M03/M06 A3038 RMK AO2 SLP293
T10281061


USA.gov is the U.S. government's official web portal to all federal, state and local government web resources and services.